Time;durP1;ratioP1;P1;durP2;ratioP2;P2;SDS_P1;SDS_P2;PMS_P1;PMS_P2;Temp;Humidity;BMP_temperature;BMP_pressure;BME280_temperature;BME280_humidity;BME280_pressure;Samples;Min_cycle;Max_cycle;Signal;HPM_P1;HPM_P2
2023/08/26 00:00:38;;;;;;;6.75;5.45;;;;;;;23.34;90.19;99309.47;4924303;28;20380;-85
2023/08/26 00:03:05;;;;;;;8.45;5.72;;;;;;;23.33;90.39;99313.22;4895148;28;20051;-86
2023/08/26 00:05:32;;;;;;;10.65;5.60;;;;;;;23.32;90.23;99314.28;4915365;28;20047;-87
2023/08/26 00:08:01;;;;;;;6.45;5.63;;;;;;;23.31;89.88;99297.22;4908782;28;20138;-86
2023/08/26 00:10:27;;;;;;;9.48;5.72;;;;;;;23.30;89.87;99292.00;4916798;28;20067;-86
2023/08/26 00:12:54;;;;;;;11.68;5.68;;;;;;;23.28;90.70;99286.84;4893293;28;20051;-85
2023/08/26 00:15:22;;;;;;;9.02;5.75;;;;;;;23.28;90.62;99300.38;4927196;28;20078;-85
2023/08/26 00:17:49;;;;;;;9.32;5.85;;;;;;;23.29;90.60;99312.03;4936426;28;20050;-85
2023/08/26 00:20:16;;;;;;;10.07;5.82;;;;;;;23.28;90.41;99307.66;4906968;28;20542;-85
2023/08/26 00:22:43;;;;;;;9.02;5.70;;;;;;;23.27;90.55;99309.56;4920239;28;20047;-85
2023/08/26 00:25:10;;;;;;;8.32;5.60;;;;;;;23.25;90.75;99308.94;4941525;28;20051;-85
2023/08/26 00:27:37;;;;;;;10.35;5.57;;;;;;;23.23;90.89;99304.81;4908608;28;20051;-85
2023/08/26 00:30:05;;;;;;;8.98;5.90;;;;;;;23.24;91.11;99323.56;4946937;28;20059;-85
2023/08/26 00:32:31;;;;;;;10.02;7.05;;;;;;;23.22;91.52;99322.16;4907890;28;20043;-85
2023/08/26 00:34:58;;;;;;;9.38;6.07;;;;;;;23.22;91.89;99309.41;4955289;28;20055;-85
2023/08/26 00:37:27;;;;;;;17.02;6.50;;;;;;;23.23;91.82;99310.25;4913235;28;20050;-85
2023/08/26 00:39:54;;;;;;;13.70;6.63;;;;;;;23.22;92.19;99308.59;4905799;28;20050;-85
2023/08/26 00:42:21;;;;;;;9.55;5.82;;;;;;;23.19;92.23;99308.00;4920226;28;20059;-85
2023/08/26 00:44:47;;;;;;;9.32;5.45;;;;;;;23.19;92.29;99326.13;4926761;28;20047;-86
2023/08/26 00:47:15;;;;;;;11.57;5.80;;;;;;;23.19;92.35;99332.38;4928840;28;20043;-85
2023/08/26 00:49:41;;;;;;;13.65;6.00;;;;;;;23.21;92.28;99296.94;4905967;28;20531;-84
2023/08/26 00:52:09;;;;;;;19.63;6.50;;;;;;;23.17;92.25;99322.81;4921229;29;20055;-84
2023/08/26 00:54:36;;;;;;;11.20;5.95;;;;;;;23.14;92.99;99328.72;4916401;28;20043;-85
2023/08/26 00:57:04;;;;;;;10.82;6.25;;;;;;;23.14;93.18;99337.66;4931222;28;20098;-85
2023/08/26 00:59:31;;;;;;;12.52;6.80;;;;;;;23.13;93.32;99329.78;4906996;29;20039;-84
2023/08/26 01:01:59;;;;;;;9.52;6.20;;;;;;;23.14;93.14;99312.47;4903558;28;21083;-85
2023/08/26 01:04:27;;;;;;;8.90;5.72;;;;;;;23.13;93.42;99327.91;4924494;28;20050;-85
2023/08/26 01:06:54;;;;;;;11.65;6.20;;;;;;;23.13;93.32;99317.06;4938513;28;20074;-85
2023/08/26 01:09:21;;;;;;;12.40;6.10;;;;;;;23.12;93.13;99326.22;4904878;28;20044;-85
2023/08/26 01:11:52;;;;;;;8.07;5.55;;;;;;;23.13;93.10;99329.78;4921173;28;20044;-85
2023/08/26 01:14:35;;;;;;;9.00;5.40;;;;;;;23.05;93.28;99328.22;4932391;28;20635;-85
2023/08/26 01:17:05;;;;;;;6.93;5.07;;;;;;;23.10;93.09;99341.03;4917695;28;20131;-85
2023/08/26 01:19:39;;;;;;;11.30;5.07;;;;;;;23.06;93.19;99345.28;4920470;28;20059;-85
2023/08/26 01:22:09;;;;;;;6.80;4.32;;;;;;;23.08;92.79;99348.59;4910842;28;20039;-86
2023/08/26 01:24:40;;;;;;;8.88;4.55;;;;;;;23.10;92.84;99366.28;4925737;28;20773;-86
2023/08/26 01:27:07;;;;;;;7.80;3.97;;;;;;;23.09;92.64;99363.78;4910929;28;20130;-86
2023/08/26 01:29:35;;;;;;;5.13;4.05;;;;;;;23.08;92.32;99365.66;4920772;28;20056;-86
2023/08/26 01:32:37;;;;;;;7.50;3.65;;;;;;;23.09;92.43;99358.38;4941044;28;20047;-86
2023/08/26 01:35:07;;;;;;;4.65;3.88;;;;;;;23.08;92.59;99356.72;4851238;29;20053;-87
2023/08/26 01:37:34;;;;;;;4.25;3.50;;;;;;;23.07;92.61;99350.47;4922604;28;20052;-86
2023/08/26 01:40:05;;;;;;;7.03;3.58;;;;;;;23.05;92.79;99354.44;4906845;28;20853;-85
2023/08/26 01:42:35;;;;;;;5.65;3.47;;;;;;;23.05;92.84;99376.13;4910390;29;20054;-87
2023/08/26 01:45:05;;;;;;;9.00;3.08;;;;;;;23.05;92.93;99376.97;4911234;28;20054;-86
2023/08/26 01:47:32;;;;;;;5.18;3.55;;;;;;;23.04;92.77;99361.75;4925501;29;20063;-85
2023/08/26 01:49:59;;;;;;;6.90;3.47;;;;;;;23.02;93.04;99369.28;4911129;28;20058;-86
2023/08/26 01:52:26;;;;;;;3.30;3.00;;;;;;;23.03;93.04;99367.41;4906783;28;20043;-87
2023/08/26 01:54:53;;;;;;;4.47;2.75;;;;;;;23.03;93.14;99367.41;4902849;28;20118;-85
2023/08/26 01:57:19;;;;;;;3.25;2.80;;;;;;;23.03;93.13;99378.25;4911573;29;20050;-87
2023/08/26 01:59:46;;;;;;;8.85;3.10;;;;;;;23.01;92.90;99378.47;4913825;28;20527;-86
2023/08/26 02:02:13;;;;;;;6.72;3.20;;;;;;;22.99;93.19;99375.16;4923486;28;20122;-86
2023/08/26 02:04:40;;;;;;;6.20;3.08;;;;;;;23.01;92.91;99359.50;4897741;28;20043;-86
2023/08/26 02:07:07;;;;;;;6.15;3.40;;;;;;;23.00;92.68;99333.50;4924168;28;20587;-86
2023/08/26 02:09:34;;;;;;;6.43;3.58;;;;;;;23.00;92.90;99343.47;4913011;28;20144;-86
2023/08/26 02:12:01;;;;;;;5.05;3.50;;;;;;;22.98;92.41;99346.44;4912906;28;20051;-87
2023/08/26 02:14:28;;;;;;;5.57;3.40;;;;;;;22.99;92.67;99360.78;4914158;28;20131;-85
2023/08/26 02:16:54;;;;;;;5.85;3.40;;;;;;;22.98;92.57;99367.28;4919480;28;20447;-86
2023/08/26 02:19:22;;;;;;;6.45;3.58;;;;;;;22.96;92.68;99367.47;4938832;28;20055;-86
2023/08/26 02:21:49;;;;;;;6.60;4.05;;;;;;;22.95;92.45;99368.53;4914001;28;20165;-85
2023/08/26 02:24:21;;;;;;;8.25;4.18;;;;;;;22.95;92.54;99382.88;4928671;28;20407;-86
2023/08/26 02:26:48;;;;;;;7.88;4.38;;;;;;;22.94;92.41;99388.50;4911222;28;22418;-86
2023/08/26 02:29:15;;;;;;;5.78;4.13;;;;;;;22.92;92.50;99402.31;4927268;29;20152;-87
2023/08/26 02:31:42;;;;;;;7.57;4.60;;;;;;;22.95;92.71;99401.03;4899103;28;20040;-86
2023/08/26 02:34:09;;;;;;;6.00;4.22;;;;;;;22.94;92.83;99393.94;4911083;28;20050;-86
2023/08/26 02:36:37;;;;;;;9.43;5.07;;;;;;;22.92;92.58;99390.63;4906991;28;20039;-86
2023/08/26 02:39:05;;;;;;;7.53;4.95;;;;;;;22.93;92.89;99406.66;4927494;28;20051;-86
2023/08/26 02:41:32;;;;;;;9.55;5.63;;;;;;;22.91;92.88;99408.75;4915874;29;20043;-85
2023/08/26 02:43:59;;;;;;;8.05;4.82;;;;;;;22.90;93.24;99409.81;4942184;28;20054;-86
2023/08/26 02:46:26;;;;;;;8.77;5.38;;;;;;;22.91;93.52;99405.22;4920760;28;20062;-86
2023/08/26 02:48:53;;;;;;;9.48;5.60;;;;;;;22.92;93.52;99406.88;4924292;28;20063;-87
2023/08/26 02:51:19;;;;;;;9.43;5.78;;;;;;;22.89;93.40;99404.63;4923959;29;20127;-86
2023/08/26 02:53:46;;;;;;;8.35;5.40;;;;;;;22.90;93.00;99400.88;4916299;28;20124;-86
2023/08/26 02:56:13;;;;;;;11.52;6.15;;;;;;;22.87;93.49;99406.72;4940523;28;20052;-86
2023/08/26 02:58:41;;;;;;;9.32;5.40;;;;;;;22.88;93.33;99411.09;4878397;28;20051;-86
2023/08/26 03:01:08;;;;;;;9.82;5.88;;;;;;;22.90;93.54;99417.13;4952112;28;20744;-86
2023/08/26 03:03:35;;;;;;;10.13;6.15;;;;;;;22.90;93.51;99420.66;4925180;28;20057;-86
2023/08/26 03:06:02;;;;;;;10.88;6.00;;;;;;;22.88;93.62;99420.03;4906514;28;20059;-86
2023/08/26 03:08:29;;;;;;;10.65;6.47;;;;;;;22.87;93.63;99409.44;4940907;28;20051;-87
2023/08/26 03:11:03;;;;;;;10.35;6.22;;;;;;;22.86;93.81;99434.84;4908333;28;20111;-85
2023/08/26 03:13:30;;;;;;;11.45;7.00;;;;;;;22.87;93.63;99436.50;4906827;28;20039;-85
2023/08/26 03:16:37;;;;;;;10.50;6.85;;;;;;;22.80;93.98;99425.75;4913153;28;20055;-86
2023/08/26 03:19:04;;;;;;;7.93;7.03;;;;;;;22.85;93.71;99438.63;4923100;28;20531;-85
2023/08/26 03:21:31;;;;;;;8.23;6.70;;;;;;;22.86;93.83;99440.28;4936237;28;20075;-87
2023/08/26 03:23:58;;;;;;;15.07;6.82;;;;;;;22.87;93.35;99433.78;4951032;28;20047;-87
2023/08/26 03:26:25;;;;;;;9.18;7.28;;;;;;;22.85;93.15;99431.31;4913712;29;20056;-86
2023/08/26 03:28:52;;;;;;;20.95;7.60;;;;;;;22.85;93.08;99439.44;4917410;28;20435;-85
2023/08/26 03:31:19;;;;;;;12.00;7.25;;;;;;;22.83;93.31;99438.84;4945753;28;20119;-86
2023/08/26 03:33:47;;;;;;;10.50;7.28;;;;;;;22.84;93.38;99442.38;4919337;28;20107;-86
2023/08/26 03:36:14;;;;;;;15.50;7.82;;;;;;;22.84;93.32;99432.34;4924422;28;20683;-87
2023/08/26 03:38:41;;;;;;;12.20;7.95;;;;;;;22.81;93.36;99440.94;4923359;28;20043;-86
2023/08/26 03:41:08;;;;;;;15.30;7.07;;;;;;;22.82;93.30;99436.34;4937285;28;20174;-86
2023/08/26 03:43:35;;;;;;;11.93;7.30;;;;;;;22.81;93.20;99429.28;4896337;28;20071;-86
2023/08/26 03:46:04;;;;;;;10.15;6.45;;;;;;;22.82;92.69;99425.53;4921394;28;20126;-86
2023/08/26 03:48:31;;;;;;;10.30;7.38;;;;;;;22.80;92.76;99431.19;4950108;28;20138;-86
2023/08/26 03:50:58;;;;;;;11.95;7.00;;;;;;;22.81;92.70;99440.13;4938466;28;20054;-86
2023/08/26 03:53:27;;;;;;;12.88;7.43;;;;;;;22.78;92.60;99449.50;4940489;28;20059;-85
2023/08/26 03:55:53;;;;;;;13.35;7.53;;;;;;;22.79;92.60;99453.03;4911928;28;20131;-86
2023/08/26 03:58:20;;;;;;;14.93;8.23;;;;;;;22.79;92.63;99459.28;4920569;28;20492;-87
2023/08/26 04:00:47;;;;;;;14.68;8.50;;;;;;;22.76;92.76;99449.72;4942928;28;20051;-85
2023/08/26 04:03:14;;;;;;;14.98;8.02;;;;;;;22.73;92.57;99444.78;4938983;28;20054;-86
2023/08/26 04:05:41;;;;;;;11.23;7.30;;;;;;;22.75;92.28;99441.84;4952129;28;20048;-86
2023/08/26 04:08:08;;;;;;;11.63;7.90;;;;;;;22.73;92.44;99449.38;4943483;28;20609;-86
2023/08/26 04:10:35;;;;;;;10.88;7.55;;;;;;;22.74;92.33;99442.88;4954904;28;20051;-86
2023/08/26 04:13:21;;;;;;;13.32;7.70;;;;;;;22.66;92.21;99437.78;4919340;28;20502;-87
2023/08/26 04:15:48;;;;;;;13.48;7.80;;;;;;;22.71;92.60;99451.47;4922746;28;20510;-85
2023/08/26 04:18:15;;;;;;;12.85;7.60;;;;;;;22.72;92.25;99450.44;4909169;29;20499;-85
2023/08/26 04:20:42;;;;;;;13.27;7.38;;;;;;;22.69;92.34;99442.72;4905908;28;20555;-85
2023/08/26 04:23:09;;;;;;;10.88;7.72;;;;;;;22.69;92.00;99456.25;4909302;28;20130;-86
2023/08/26 04:25:37;;;;;;;12.52;7.28;;;;;;;22.67;92.20;99444.81;4928085;28;20115;-85
2023/08/26 04:28:04;;;;;;;11.63;7.75;;;;;;;22.63;92.39;99458.00;4942673;28;20052;-86
2023/08/26 04:30:31;;;;;;;11.05;7.07;;;;;;;22.61;92.06;99459.25;4892096;28;20126;-85
2023/08/26 04:33:00;;;;;;;12.93;7.53;;;;;;;22.61;91.84;99460.09;4924425;28;20130;-86
2023/08/26 04:35:28;;;;;;;13.27;7.53;;;;;;;22.58;92.06;99471.38;4918393;28;20044;-86
2023/08/26 04:37:55;;;;;;;12.02;7.70;;;;;;;22.57;92.26;99475.13;4893706;28;20138;-85
2023/08/26 04:40:23;;;;;;;13.43;7.88;;;;;;;22.59;92.28;99491.13;4934013;28;20039;-86
2023/08/26 04:42:53;;;;;;;10.07;6.97;;;;;;;22.58;92.40;99494.91;4897419;28;20040;-85
2023/08/26 04:45:20;;;;;;;11.32;7.28;;;;;;;22.59;92.56;99500.06;4911064;28;20146;-86
2023/08/26 04:47:47;;;;;;;13.15;6.72;;;;;;;22.57;92.22;99488.66;4921929;28;20051;-85
2023/08/26 04:50:15;;;;;;;14.63;7.60;;;;;;;22.59;92.39;99483.84;4939851;28;20074;-86
2023/08/26 04:52:42;;;;;;;11.63;7.45;;;;;;;22.59;92.21;99473.00;4933371;28;20040;-86
2023/08/26 04:55:09;;;;;;;13.82;7.55;;;;;;;22.58;91.84;99484.91;4933524;28;20111;-85
2023/08/26 04:57:36;;;;;;;12.98;7.07;;;;;;;22.58;91.62;99495.72;4916313;29;20046;-85
2023/08/26 05:00:09;;;;;;;10.95;7.13;;;;;;;22.58;91.79;99503.84;4928974;28;20049;-85
2023/08/26 05:02:37;;;;;;;13.23;7.78;;;;;;;22.56;91.63;99508.63;4893558;28;20122;-86
2023/08/26 05:05:06;;;;;;;12.57;7.65;;;;;;;22.56;91.79;99515.94;4910116;29;20036;-86
2023/08/26 05:07:33;;;;;;;10.23;7.68;;;;;;;22.52;91.61;99518.28;4904267;28;20760;-85
2023/08/26 05:10:00;;;;;;;13.00;6.82;;;;;;;22.54;91.39;99519.69;4925010;28;20134;-86
2023/08/26 05:12:27;;;;;;;12.18;7.30;;;;;;;22.52;91.18;99519.09;4892008;28;20400;-86
2023/08/26 05:14:54;;;;;;;13.35;7.15;;;;;;;22.56;91.60;99529.47;4925410;28;20479;-86
2023/08/26 05:17:21;;;;;;;13.27;8.07;;;;;;;22.52;91.18;99521.78;4912520;28;20590;-85
2023/08/26 05:19:48;;;;;;;10.60;7.45;;;;;;;22.52;91.42;99526.38;4927614;28;20129;-86
2023/08/26 05:22:14;;;;;;;12.73;6.88;;;;;;;22.51;91.37;99536.34;4950652;28;20126;-85
2023/08/26 05:24:41;;;;;;;10.77;6.97;;;;;;;22.52;91.23;99540.75;4912483;28;20103;-87
2023/08/26 05:27:08;;;;;;;10.20;7.00;;;;;;;22.50;91.03;99550.94;4957421;28;20390;-86
2023/08/26 05:29:36;;;;;;;12.52;7.22;;;;;;;22.51;91.11;99552.59;4897944;28;20058;-86
2023/08/26 05:32:03;;;;;;;12.20;7.30;;;;;;;22.52;91.06;99546.16;4931283;28;20043;-86
2023/08/26 05:34:30;;;;;;;11.05;7.63;;;;;;;22.52;90.85;99542.63;4945649;28;20039;-85
2023/08/26 05:36:57;;;;;;;17.23;7.72;;;;;;;22.57;90.98;99552.75;4913018;28;20070;-86
2023/08/26 05:39:24;;;;;;;13.45;8.02;;;;;;;22.59;90.98;99550.66;4946574;28;20043;-86
2023/08/26 05:41:51;;;;;;;9.10;7.28;;;;;;;22.60;91.13;99550.47;4919557;28;20075;-86
2023/08/26 05:44:18;;;;;;;12.60;7.18;;;;;;;22.63;91.45;99552.72;4923749;28;20063;-86
2023/08/26 05:46:46;;;;;;;13.45;7.22;;;;;;;22.67;91.15;99553.09;4927317;28;20043;-87
2023/08/26 05:49:12;;;;;;;10.32;7.13;;;;;;;22.70;90.64;99552.66;4924409;29;20051;-86
2023/08/26 05:51:39;;;;;;;13.65;7.70;;;;;;;22.73;90.40;99550.34;4928039;28;20515;-87
2023/08/26 05:54:06;;;;;;;11.02;7.15;;;;;;;22.70;90.21;99558.91;4910905;29;20036;-86
2023/08/26 05:56:33;;;;;;;12.07;7.57;;;;;;;22.70;90.21;99558.91;4911655;28;20051;-86
2023/08/26 05:59:00;;;;;;;13.15;8.40;;;;;;;22.69;90.50;99562.63;4944380;28;20449;-86
2023/08/26 06:01:27;;;;;;;14.23;7.93;;;;;;;22.66;90.26;99556.84;4938660;28;20132;-87
2023/08/26 06:03:54;;;;;;;14.68;7.47;;;;;;;22.68;89.71;99557.47;4929562;28;20047;-87
2023/08/26 06:06:21;;;;;;;14.77;7.13;;;;;;;22.67;89.72;99559.34;4914183;28;20047;-86
2023/08/26 06:08:48;;;;;;;13.95;7.28;;;;;;;22.66;89.75;99554.97;4941639;28;20510;-86
2023/08/26 06:11:15;;;;;;;10.40;7.40;;;;;;;22.68;89.51;99560.19;4911672;28;20047;-86
2023/08/26 06:13:43;;;;;;;13.55;7.13;;;;;;;22.63;89.57;99554.59;4909325;28;20483;-86
2023/08/26 06:16:11;;;;;;;12.15;7.28;;;;;;;22.63;88.87;99555.41;4927429;28;20043;-86
2023/08/26 06:18:38;;;;;;;10.13;6.82;;;;;;;22.63;88.67;99560.84;4927704;28;20051;-86
2023/08/26 06:21:08;;;;;;;11.88;7.45;;;;;;;22.63;88.54;99558.13;4925960;29;20044;-86
2023/08/26 06:23:34;;;;;;;10.27;6.70;;;;;;;22.65;88.83;99572.28;4911800;28;20075;-85
2023/08/26 06:26:02;;;;;;;12.77;7.60;;;;;;;22.63;88.68;99573.53;4913986;28;20460;-85
2023/08/26 06:28:30;;;;;;;14.57;7.65;;;;;;;22.63;88.85;99576.25;4926574;28;20122;-87
2023/08/26 06:30:58;;;;;;;12.13;6.72;;;;;;;22.62;88.75;99571.88;4926770;28;20504;-86
2023/08/26 06:33:28;;;;;;;14.30;7.53;;;;;;;22.65;88.35;99569.56;4926673;28;20172;-87
2023/08/26 06:35:55;;;;;;;11.05;6.90;;;;;;;22.69;87.97;99587.00;4939398;28;20059;-86
2023/08/26 06:38:22;;;;;;;11.45;7.10;;;;;;;22.74;88.19;99599.88;4934176;28;20510;-86
2023/08/26 06:40:55;;;;;;;9.10;6.55;;;;;;;22.75;87.98;99590.72;4909483;28;20047;-86
2023/08/26 06:43:23;;;;;;;11.82;6.90;;;;;;;22.80;87.73;99587.38;4936891;28;20059;-87
2023/08/26 06:45:50;;;;;;;11.52;6.55;;;;;;;22.80;86.50;99588.19;4893202;28;20054;-87
2023/08/26 06:48:17;;;;;;;13.40;7.88;;;;;;;22.80;87.16;99590.91;4910124;28;20527;-86
2023/08/26 06:50:48;;;;;;;11.25;6.43;;;;;;;22.81;86.72;99589.81;4928960;28;20051;-87
2023/08/26 06:53:20;;;;;;;12.00;6.63;;;;;;;22.83;86.86;99590.44;4929160;28;20047;-86
2023/08/26 06:55:49;;;;;;;11.38;6.35;;;;;;;22.83;86.29;99589.63;4901814;28;20130;-86
2023/08/26 06:58:16;;;;;;;12.82;5.93;;;;;;;22.80;84.48;99581.94;4930256;28;20055;-86
2023/08/26 07:00:43;;;;;;;8.30;5.35;;;;;;;22.75;84.11;99591.56;4912683;28;20111;-86
2023/08/26 07:03:10;;;;;;;11.23;6.00;;;;;;;22.75;84.80;99594.25;4927847;29;20047;-86
2023/08/26 07:05:45;;;;;;;9.90;5.40;;;;;;;22.75;84.33;99596.97;4916917;28;20506;-86
2023/08/26 07:08:15;;;;;;;9.20;5.40;;;;;;;22.81;84.98;99597.13;4942056;28;20053;-86
2023/08/26 07:10:44;;;;;;;7.97;5.50;;;;;;;22.82;85.24;99586.09;4941063;28;20822;-85
2023/08/26 07:13:12;;;;;;;7.35;5.00;;;;;;;22.87;84.23;99579.97;4928381;29;20456;-87
2023/08/26 07:15:39;;;;;;;10.75;5.47;;;;;;;22.88;83.65;99570.84;4911222;28;20035;-86
2023/08/26 07:18:06;;;;;;;9.05;5.70;;;;;;;22.87;83.58;99571.88;4938736;28;20047;-86
2023/08/26 07:20:33;;;;;;;11.38;5.18;;;;;;;22.85;82.90;99566.69;4938306;28;20475;-86
2023/08/26 07:23:00;;;;;;;12.63;5.05;;;;;;;22.89;83.24;99570.59;4942234;28;21868;-86
2023/08/26 07:25:26;;;;;;;12.57;5.40;;;;;;;22.90;82.69;99560.63;4940532;28;20047;-86
2023/08/26 07:27:53;;;;;;;8.82;4.70;;;;;;;22.95;82.14;99575.13;4938793;28;20054;-86
2023/08/26 07:30:21;;;;;;;8.48;4.55;;;;;;;22.93;81.76;99571.00;4935207;28;20054;-85
2023/08/26 07:32:47;;;;;;;5.38;4.50;;;;;;;22.95;81.96;99571.59;4937245;28;20075;-86
2023/08/26 07:35:14;;;;;;;10.77;4.80;;;;;;;22.99;81.09;99567.41;4922355;28;20051;-86
2023/08/26 07:37:41;;;;;;;7.53;5.00;;;;;;;23.02;81.19;99566.97;4924768;28;20391;-85
2023/08/26 07:40:13;;;;;;;7.22;4.03;;;;;;;23.00;80.44;99560.09;4927978;28;20044;-86
2023/08/26 07:42:40;;;;;;;7.65;4.03;;;;;;;23.05;80.56;99573.81;4914483;28;20047;-87
2023/08/26 07:45:07;;;;;;;5.35;3.60;;;;;;;23.07;79.64;99572.53;4929236;28;20047;-86
2023/08/26 07:47:34;;;;;;;9.18;4.22;;;;;;;23.08;77.31;99585.03;4895289;28;20106;-85
2023/08/26 07:50:04;;;;;;;9.90;4.68;;;;;;;23.12;77.38;99580.81;4910107;28;20051;-85
2023/08/26 07:52:31;;;;;;;7.82;3.63;;;;;;;23.12;76.70;99586.22;4927733;28;20052;-86
2023/08/26 07:54:58;;;;;;;7.70;4.13;;;;;;;23.18;77.09;99574.50;4921740;28;20209;-86
2023/08/26 07:57:24;;;;;;;7.45;4.13;;;;;;;23.21;76.46;99556.16;4927434;28;20047;-85
2023/08/26 07:59:51;;;;;;;7.53;3.50;;;;;;;23.21;75.34;99562.41;4951410;28;20043;-85
2023/08/26 08:02:18;;;;;;;7.78;3.67;;;;;;;23.18;75.08;99574.50;4912029;28;20044;-85
2023/08/26 08:04:45;;;;;;;9.63;3.83;;;;;;;23.07;72.49;99572.53;4909866;28;20131;-86
2023/08/26 08:07:12;;;;;;;7.22;2.95;;;;;;;23.05;73.41;99562.97;4926526;28;20051;-86
2023/08/26 08:09:39;;;;;;;7.65;3.10;;;;;;;23.00;73.21;99560.97;4909713;28;20516;-86
2023/08/26 08:12:08;;;;;;;4.90;3.10;;;;;;;23.03;73.27;99559.69;4912356;28;20045;-85
2023/08/26 08:14:36;;;;;;;7.57;3.03;;;;;;;23.05;72.94;99560.25;4926698;28;20062;-85
2023/08/26 08:17:03;;;;;;;6.68;3.30;;;;;;;23.08;72.07;99562.56;4925056;28;20047;-86
2023/08/26 08:19:30;;;;;;;5.25;2.83;;;;;;;23.07;71.98;99569.81;4929243;28;20130;-86
2023/08/26 08:21:57;;;;;;;5.93;3.00;;;;;;;23.08;70.72;99567.97;4935144;28;20086;-84
2023/08/26 08:24:24;;;;;;;4.40;2.80;;;;;;;23.11;71.21;99551.25;4930938;28;20094;-85
2023/08/26 08:26:51;;;;;;;6.07;2.83;;;;;;;23.17;71.20;99556.59;4952288;28;20130;-85
2023/08/26 08:29:18;;;;;;;4.55;2.42;;;;;;;23.13;68.79;99541.84;4931985;28;20065;-86
2023/08/26 08:31:44;;;;;;;4.25;2.65;;;;;;;23.12;68.42;99561.84;4890678;28;20052;-86
2023/08/26 08:34:11;;;;;;;4.15;2.65;;;;;;;23.09;68.97;99572.31;4927013;28;20044;-85
2023/08/26 08:36:38;;;;;;;6.25;2.72;;;;;;;23.04;68.15;99574.88;4907863;28;20043;-85
2023/08/26 08:39:06;;;;;;;3.05;2.60;;;;;;;23.03;67.04;99584.88;4939813;28;20063;-85
2023/08/26 08:41:34;;;;;;;5.32;2.53;;;;;;;23.01;67.30;99583.44;4923987;28;20051;-86
2023/08/26 08:44:09;;;;;;;5.45;2.60;;;;;;;23.02;67.27;99585.09;4931422;28;20134;-85
2023/08/26 08:46:36;;;;;;;5.38;2.92;;;;;;;23.03;67.05;99587.59;4921610;28;20083;-85
2023/08/26 08:49:03;;;;;;;7.28;2.70;;;;;;;23.03;67.43;99574.06;4917400;28;20134;-85
2023/08/26 08:51:30;;;;;;;4.97;3.05;;;;;;;23.08;67.97;99576.09;4938252;28;20141;-86
2023/08/26 08:53:57;;;;;;;3.22;2.80;;;;;;;23.11;66.35;99573.75;4930447;28;20142;-86
2023/08/26 08:56:24;;;;;;;3.40;2.75;;;;;;;23.08;66.02;99582.31;4910680;28;20502;-85
2023/08/26 08:58:52;;;;;;;6.07;2.72;;;;;;;23.06;65.70;99584.44;4910524;28;20062;-85
2023/08/26 09:01:20;;;;;;;7.47;3.30;;;;;;;23.08;65.36;99582.31;4913708;28;20106;-85
2023/08/26 09:03:47;;;;;;;6.07;2.78;;;;;;;23.09;66.17;99583.16;4923664;28;20046;-86
2023/08/26 09:06:14;;;;;;;4.15;2.97;;;;;;;23.12;65.46;99585.41;4922843;28;20066;-85
2023/08/26 09:08:42;;;;;;;4.28;3.45;;;;;;;23.12;65.58;99585.41;4928802;28;20389;-85
2023/08/26 09:11:09;;;;;;;5.85;3.47;;;;;;;23.09;65.74;99589.38;4925477;28;20396;-85
2023/08/26 09:13:36;;;;;;;4.50;2.83;;;;;;;23.07;65.65;99586.06;4921461;28;20086;-85
2023/08/26 09:16:04;;;;;;;6.05;3.03;;;;;;;23.10;66.04;99587.50;4926658;28;20051;-86
2023/08/26 09:18:31;;;;;;;4.53;2.65;;;;;;;23.09;66.68;99583.97;4907928;28;20122;-86
2023/08/26 09:20:58;;;;;;;8.00;3.28;;;;;;;23.15;66.68;99580.38;4927314;28;20055;-86
2023/08/26 09:23:25;;;;;;;5.60;2.83;;;;;;;23.15;66.65;99582.25;4909005;28;20086;-86
2023/08/26 09:25:56;;;;;;;4.50;2.88;;;;;;;23.16;65.89;99579.31;4923061;28;20047;-85
2023/08/26 09:28:23;;;;;;;5.32;3.00;;;;;;;23.23;66.11;99581.97;4910842;28;20043;-85
2023/08/26 09:31:06;;;;;;;8.02;3.60;;;;;;;23.18;65.80;99588.06;4938423;28;20047;-85
2023/08/26 09:33:34;;;;;;;5.95;3.15;;;;;;;23.27;66.10;99595.88;4925588;28;20068;-86
2023/08/26 09:36:01;;;;;;;7.95;3.40;;;;;;;23.25;65.77;99598.81;4928017;28;20047;-85
2023/08/26 09:38:50;;;;;;;5.57;2.72;;;;;;;23.12;63.37;99598.94;4935828;28;20048;-86
2023/08/26 09:41:19;;;;;;;4.50;2.70;;;;;;;23.16;65.06;99595.56;4920568;28;20123;-85
2023/08/26 09:43:47;;;;;;;7.63;3.05;;;;;;;23.13;65.11;99587.91;4891125;28;20043;-87
2023/08/26 09:46:21;;;;;;;4.95;2.88;;;;;;;23.10;63.55;99580.22;4898436;28;20046;-86
2023/08/26 09:48:48;;;;;;;6.20;3.13;;;;;;;23.15;64.19;99584.94;4940127;28;20619;-84
2023/08/26 09:51:26;;;;;;;7.05;3.00;;;;;;;23.12;64.22;99577.28;4931432;28;20043;-86
2023/08/26 09:53:53;;;;;;;4.20;2.58;;;;;;;23.18;63.99;99570.97;4912044;28;20540;-85
2023/08/26 09:56:23;;;;;;;3.83;2.85;;;;;;;23.22;64.44;99569.47;4928239;28;20047;-85
2023/08/26 09:58:54;;;;;;;4.32;2.47;;;;;;;23.30;64.19;99571.03;4910555;28;20051;-86
2023/08/26 10:01:22;;;;;;;3.28;2.20;;;;;;;23.30;63.17;99574.56;4923409;28;20488;-85
2023/08/26 10:04:04;;;;;;;5.18;2.45;;;;;;;23.31;62.38;99578.97;4885799;28;20142;-85
2023/08/26 10:06:36;;;;;;;3.37;2.40;;;;;;;23.33;61.15;99563.31;4891883;29;20487;-85
2023/08/26 10:09:47;;;;;;;4.30;3.00;;;;;;;23.28;59.93;99571.28;4909203;28;20079;-85
2023/08/26 10:12:20;;;;;;;3.15;1.80;;;;;;;23.34;61.18;99577.69;4915972;28;20564;-85
2023/08/26 10:14:48;;;;;;;;;;;;;;;23.18;58.84;99582.63;4943673;28;20183;-87
2023/08/26 10:17:14;;;;;;;4.15;2.30;;;;;;;23.33;60.73;99581.44;4910211;28;19923;-86
2023/08/26 10:19:41;;;;;;;2.50;2.20;;;;;;;23.35;61.02;99588.28;4915363;28;20051;-86
2023/08/26 10:22:09;;;;;;;4.18;1.92;;;;;;;23.37;60.49;99582.66;4937619;28;20126;-85
2023/08/26 10:24:39;;;;;;;4.43;2.25;;;;;;;23.36;59.21;99586.41;4920806;28;20054;-85
2023/08/26 10:27:06;;;;;;;3.13;2.17;;;;;;;23.39;59.81;99589.50;4926686;28;20043;-86
2023/08/26 10:29:36;;;;;;;4.53;2.08;;;;;;;23.38;59.33;99587.00;4934280;28;20099;-86
2023/08/26 10:32:18;;;;;;;3.67;1.88;;;;;;;23.27;57.67;99582.34;4941139;28;20495;-85
2023/08/26 10:34:55;;;;;;;5.72;2.25;;;;;;;23.27;58.26;99588.56;4953106;28;20555;-85
2023/08/26 10:37:28;;;;;;;3.30;2.20;;;;;;;23.28;59.40;99584.84;4912790;28;20055;-86
2023/08/26 10:39:55;;;;;;;3.83;2.03;;;;;;;23.30;59.04;99579.19;4926927;28;20098;-86
2023/08/26 10:42:23;;;;;;;4.15;2.10;;;;;;;23.29;58.94;99580.25;4910819;28;20075;-86
2023/08/26 10:44:55;;;;;;;3.13;2.28;;;;;;;23.25;58.59;99585.25;4943506;28;20051;-86
2023/08/26 10:47:37;;;;;;;3.60;1.87;;;;;;;23.17;57.06;99577.44;4913542;28;20491;-86
2023/08/26 10:50:28;;;;;;;5.22;1.92;;;;;;;23.14;57.14;99561.63;4916660;28;20447;-86
2023/08/26 10:53:12;;;;;;;5.88;2.03;;;;;;;23.22;57.99;99560.50;4924697;28;21074;-86
2023/08/26 10:55:39;;;;;;;3.10;1.92;;;;;;;23.19;57.61;99572.63;4936839;28;20540;-86
2023/08/26 10:58:17;;;;;;;4.28;1.70;;;;;;;23.07;57.25;99569.81;4911888;28;20066;-86
2023/08/26 11:00:52;;;;;;;5.82;1.98;;;;;;;23.06;57.57;99570.06;4911193;28;20130;-86
2023/08/26 11:03:22;;;;;;;2.70;1.85;;;;;;;23.06;57.29;99567.34;4935894;28;20500;-87
2023/08/26 11:06:04;;;;;;;2.15;1.90;;;;;;;22.96;56.31;99571.34;4899917;28;20035;-86
2023/08/26 11:08:31;;;;;;;2.97;1.75;;;;;;;23.01;57.66;99575.31;4928337;28;20140;-87
2023/08/26 11:10:58;;;;;;;3.08;2.10;;;;;;;22.96;57.41;99568.66;4928679;28;20051;-87
2023/08/26 11:13:24;;;;;;;4.07;1.77;;;;;;;22.96;56.44;99579.47;4893959;28;20765;-87
2023/08/26 11:15:51;;;;;;;3.75;1.90;;;;;;;22.93;57.45;99581.81;4941392;28;20050;-84
2023/08/26 11:18:20;;;;;;;4.30;1.92;;;;;;;22.90;56.77;99591.22;4928259;28;20067;-86
2023/08/26 11:20:47;;;;;;;5.15;2.15;;;;;;;22.88;56.55;99593.31;4950057;28;20131;-85
2023/08/26 11:23:14;;;;;;;4.22;2.10;;;;;;;22.84;55.68;99580.44;4920466;28;20040;-85
2023/08/26 11:25:40;;;;;;;5.88;2.03;;;;;;;22.83;56.13;99557.94;4912546;28;20070;-86
2023/08/26 11:28:09;;;;;;;3.70;1.92;;;;;;;22.85;55.86;99555.03;4938873;28;20134;-86
2023/08/26 11:30:37;;;;;;;5.32;1.90;;;;;;;22.86;57.17;99545.84;4912961;28;20062;-86
2023/08/26 11:33:17;;;;;;;6.10;2.13;;;;;;;22.83;56.85;99565.25;4919555;28;20051;-86
2023/08/26 11:35:45;;;;;;;3.13;1.90;;;;;;;22.90;57.19;99574.16;4922687;28;20488;-86